sensor_id;sensor_type;location;lat;lon;timestamp;P1;durP1;ratioP1;P2;durP2;ratioP2
6751;SDS011;3413;47.680;9.166;2023-09-19T00:03:44;2.50;;;1.10;;
6751;SDS011;3413;47.680;9.166;2023-09-19T00:08:46;2.00;;;1.00;;
6751;SDS011;3413;47.680;9.166;2023-09-19T00:13:49;2.30;;;1.00;;
6751;SDS011;3413;47.680;9.166;2023-09-19T00:18:51;3.20;;;1.23;;
6751;SDS011;3413;47.680;9.166;2023-09-19T00:23:53;1.90;;;0.97;;
6751;SDS011;3413;47.680;9.166;2023-09-19T00:28:56;1.53;;;0.93;;
6751;SDS011;3413;47.680;9.166;2023-09-19T00:33:58;2.03;;;0.90;;
6751;SDS011;3413;47.680;9.166;2023-09-19T00:39:05;3.10;;;1.00;;
6751;SDS011;3413;47.680;9.166;2023-09-19T00:44:09;1.87;;;1.07;;
6751;SDS011;3413;47.680;9.166;2023-09-19T00:49:11;3.60;;;1.07;;
6751;SDS011;3413;47.680;9.166;2023-09-19T00:54:16;2.20;;;1.20;;
6751;SDS011;3413;47.680;9.166;2023-09-19T00:59:19;2.50;;;0.77;;
6751;SDS011;3413;47.680;9.166;2023-09-19T01:04:23;5.43;;;1.23;;
6751;SDS011;3413;47.680;9.166;2023-09-19T01:09:26;2.10;;;0.97;;
6751;SDS011;3413;47.680;9.166;2023-09-19T01:14:38;2.00;;;1.00;;
6751;SDS011;3413;47.680;9.166;2023-09-19T01:20:03;1.40;;;0.70;;
6751;SDS011;3413;47.680;9.166;2023-09-19T01:31:03;1.20;;;0.60;;
6751;SDS011;3413;47.680;9.166;2023-09-19T01:36:10;1.93;;;0.80;;
6751;SDS011;3413;47.680;9.166;2023-09-19T01:41:12;2.53;;;1.00;;
6751;SDS011;3413;47.680;9.166;2023-09-19T01:51:32;2.60;;;1.17;;
6751;SDS011;3413;47.680;9.166;2023-09-19T01:57:16;1.40;;;1.00;;
6751;SDS011;3413;47.680;9.166;2023-09-19T02:02:15;1.50;;;0.90;;
6751;SDS011;3413;47.680;9.166;2023-09-19T02:07:19;3.73;;;1.00;;
6751;SDS011;3413;47.680;9.166;2023-09-19T02:12:21;3.40;;;0.80;;
6751;SDS011;3413;47.680;9.166;2023-09-19T02:17:24;2.43;;;0.90;;
6751;SDS011;3413;47.680;9.166;2023-09-19T02:22:30;1.83;;;0.80;;
6751;SDS011;3413;47.680;9.166;2023-09-19T02:27:32;2.10;;;0.80;;
6751;SDS011;3413;47.680;9.166;2023-09-19T02:32:33;7.93;;;1.13;;
6751;SDS011;3413;47.680;9.166;2023-09-19T02:37:40;1.90;;;1.10;;
6751;SDS011;3413;47.680;9.166;2023-09-19T02:42:42;1.80;;;0.80;;
6751;SDS011;3413;47.680;9.166;2023-09-19T02:47:48;1.67;;;0.90;;
6751;SDS011;3413;47.680;9.166;2023-09-19T02:52:50;1.40;;;0.80;;
6751;SDS011;3413;47.680;9.166;2023-09-19T02:57:53;3.47;;;1.20;;
6751;SDS011;3413;47.680;9.166;2023-09-19T03:02:58;2.07;;;0.97;;
6751;SDS011;3413;47.680;9.166;2023-09-19T03:08:01;2.70;;;1.10;;
6751;SDS011;3413;47.680;9.166;2023-09-19T03:13:05;5.53;;;1.00;;
6751;SDS011;3413;47.680;9.166;2023-09-19T03:18:07;2.17;;;1.10;;
6751;SDS011;3413;47.680;9.166;2023-09-19T03:23:09;1.50;;;1.00;;
6751;SDS011;3413;47.680;9.166;2023-09-19T03:28:11;1.50;;;1.00;;
6751;SDS011;3413;47.680;9.166;2023-09-19T03:33:14;8.20;;;1.10;;
6751;SDS011;3413;47.680;9.166;2023-09-19T03:38:16;1.87;;;0.70;;
6751;SDS011;3413;47.680;9.166;2023-09-19T03:43:19;1.53;;;0.90;;
6751;SDS011;3413;47.680;9.166;2023-09-19T03:48:21;2.70;;;1.20;;
6751;SDS011;3413;47.680;9.166;2023-09-19T03:53:25;2.60;;;0.90;;
6751;SDS011;3413;47.680;9.166;2023-09-19T03:58:27;4.00;;;1.03;;
6751;SDS011;3413;47.680;9.166;2023-09-19T04:03:29;11.77;;;1.10;;
6751;SDS011;3413;47.680;9.166;2023-09-19T04:08:37;3.57;;;1.20;;
6751;SDS011;3413;47.680;9.166;2023-09-19T04:13:39;2.20;;;0.87;;
6751;SDS011;3413;47.680;9.166;2023-09-19T04:18:43;1.90;;;1.00;;
6751;SDS011;3413;47.680;9.166;2023-09-19T04:23:45;2.03;;;1.00;;
6751;SDS011;3413;47.680;9.166;2023-09-19T04:28:47;1.10;;;0.70;;
6751;SDS011;3413;47.680;9.166;2023-09-19T04:33:49;1.77;;;1.00;;
6751;SDS011;3413;47.680;9.166;2023-09-19T04:38:50;2.47;;;1.00;;
6751;SDS011;3413;47.680;9.166;2023-09-19T04:43:52;2.07;;;1.00;;
6751;SDS011;3413;47.680;9.166;2023-09-19T04:48:54;2.70;;;1.03;;
6751;SDS011;3413;47.680;9.166;2023-09-19T04:53:56;2.30;;;0.97;;
6751;SDS011;3413;47.680;9.166;2023-09-19T04:58:59;3.20;;;1.10;;
6751;SDS011;3413;47.680;9.166;2023-09-19T05:04:01;7.87;;;1.60;;
6751;SDS011;3413;47.680;9.166;2023-09-19T05:09:06;2.77;;;1.00;;
6751;SDS011;3413;47.680;9.166;2023-09-19T05:14:09;3.20;;;1.00;;
6751;SDS011;3413;47.680;9.166;2023-09-19T05:19:11;1.80;;;1.10;;
6751;SDS011;3413;47.680;9.166;2023-09-19T05:24:13;13.10;;;1.40;;
6751;SDS011;3413;47.680;9.166;2023-09-19T05:29:15;2.00;;;1.20;;
6751;SDS011;3413;47.680;9.166;2023-09-19T05:34:17;2.00;;;0.80;;
6751;SDS011;3413;47.680;9.166;2023-09-19T05:39:19;1.53;;;0.90;;
6751;SDS011;3413;47.680;9.166;2023-09-19T05:44:21;1.23;;;0.80;;
6751;SDS011;3413;47.680;9.166;2023-09-19T05:49:23;4.60;;;0.90;;
6751;SDS011;3413;47.680;9.166;2023-09-19T05:54:26;6.23;;;0.97;;
6751;SDS011;3413;47.680;9.166;2023-09-19T05:59:28;2.60;;;0.87;;
6751;SDS011;3413;47.680;9.166;2023-09-19T06:04:31;8.60;;;0.70;;
6751;SDS011;3413;47.680;9.166;2023-09-19T06:09:33;2.33;;;0.90;;
6751;SDS011;3413;47.680;9.166;2023-09-19T06:14:35;1.63;;;0.93;;
6751;SDS011;3413;47.680;9.166;2023-09-19T06:19:37;1.70;;;0.77;;
6751;SDS011;3413;47.680;9.166;2023-09-19T06:24:39;1.77;;;0.90;;
6751;SDS011;3413;47.680;9.166;2023-09-19T06:29:41;2.60;;;0.77;;
6751;SDS011;3413;47.680;9.166;2023-09-19T06:34:43;1.03;;;0.70;;
6751;SDS011;3413;47.680;9.166;2023-09-19T06:39:46;1.40;;;0.80;;
6751;SDS011;3413;47.680;9.166;2023-09-19T06:44:50;2.00;;;1.00;;
6751;SDS011;3413;47.680;9.166;2023-09-19T06:49:52;1.77;;;0.70;;
6751;SDS011;3413;47.680;9.166;2023-09-19T06:54:54;1.93;;;0.70;;
6751;SDS011;3413;47.680;9.166;2023-09-19T06:59:56;4.80;;;0.80;;
6751;SDS011;3413;47.680;9.166;2023-09-19T07:04:58;1.67;;;0.93;;
6751;SDS011;3413;47.680;9.166;2023-09-19T07:10:03;1.40;;;0.70;;
6751;SDS011;3413;47.680;9.166;2023-09-19T07:15:12;2.23;;;0.80;;
6751;SDS011;3413;47.680;9.166;2023-09-19T07:20:15;1.23;;;0.87;;
6751;SDS011;3413;47.680;9.166;2023-09-19T07:25:17;1.37;;;0.83;;
6751;SDS011;3413;47.680;9.166;2023-09-19T07:30:20;1.00;;;0.60;;
6751;SDS011;3413;47.680;9.166;2023-09-19T07:35:22;4.00;;;0.80;;
6751;SDS011;3413;47.680;9.166;2023-09-19T07:40:24;1.40;;;0.70;;
6751;SDS011;3413;47.680;9.166;2023-09-19T07:45:28;4.40;;;0.93;;
6751;SDS011;3413;47.680;9.166;2023-09-19T07:50:33;1.90;;;1.00;;
6751;SDS011;3413;47.680;9.166;2023-09-19T07:55:38;2.57;;;0.80;;
6751;SDS011;3413;47.680;9.166;2023-09-19T08:00:42;1.20;;;0.70;;
6751;SDS011;3413;47.680;9.166;2023-09-19T08:05:44;1.90;;;0.93;;
6751;SDS011;3413;47.680;9.166;2023-09-19T08:10:52;1.57;;;0.90;;
6751;SDS011;3413;47.680;9.166;2023-09-19T08:15:57;2.90;;;0.90;;
6751;SDS011;3413;47.680;9.166;2023-09-19T08:21:00;6.10;;;0.93;;
6751;SDS011;3413;47.680;9.166;2023-09-19T08:26:02;1.03;;;0.70;;
6751;SDS011;3413;47.680;9.166;2023-09-19T08:31:09;2.17;;;0.90;;
6751;SDS011;3413;47.680;9.166;2023-09-19T08:36:11;3.43;;;1.30;;
6751;SDS011;3413;47.680;9.166;2023-09-19T08:41:17;3.13;;;0.97;;
6751;SDS011;3413;47.680;9.166;2023-09-19T08:46:19;2.10;;;1.10;;
6751;SDS011;3413;47.680;9.166;2023-09-19T08:51:26;2.37;;;0.80;;
6751;SDS011;3413;47.680;9.166;2023-09-19T08:56:34;1.60;;;0.90;;
6751;SDS011;3413;47.680;9.166;2023-09-19T09:01:40;2.30;;;0.93;;
6751;SDS011;3413;47.680;9.166;2023-09-19T09:06:44;2.50;;;1.07;;
6751;SDS011;3413;47.680;9.166;2023-09-19T09:11:49;1.43;;;0.70;;
6751;SDS011;3413;47.680;9.166;2023-09-19T09:16:54;1.30;;;0.80;;
6751;SDS011;3413;47.680;9.166;2023-09-19T09:22:09;1.47;;;0.90;;
6751;SDS011;3413;47.680;9.166;2023-09-19T09:27:12;2.00;;;0.93;;
6751;SDS011;3413;47.680;9.166;2023-09-19T09:37:35;1.80;;;0.80;;
6751;SDS011;3413;47.680;9.166;2023-09-19T09:42:40;2.37;;;1.00;;
6751;SDS011;3413;47.680;9.166;2023-09-19T09:47:46;3.20;;;0.90;;
6751;SDS011;3413;47.680;9.166;2023-09-19T09:52:58;1.60;;;0.80;;
6751;SDS011;3413;47.680;9.166;2023-09-19T09:58:18;1.50;;;0.90;;
6751;SDS011;3413;47.680;9.166;2023-09-19T10:03:20;3.67;;;0.87;;
6751;SDS011;3413;47.680;9.166;2023-09-19T10:08:26;9.03;;;1.03;;
6751;SDS011;3413;47.680;9.166;2023-09-19T10:13:32;1.60;;;0.80;;
6751;SDS011;3413;47.680;9.166;2023-09-19T10:18:39;1.70;;;0.90;;
6751;SDS011;3413;47.680;9.166;2023-09-19T10:23:44;2.40;;;0.80;;
6751;SDS011;3413;47.680;9.166;2023-09-19T10:28:48;2.70;;;1.23;;
6751;SDS011;3413;47.680;9.166;2023-09-19T10:33:51;2.40;;;1.10;;
6751;SDS011;3413;47.680;9.166;2023-09-19T10:38:56;2.10;;;1.00;;
6751;SDS011;3413;47.680;9.166;2023-09-19T10:44:04;1.63;;;0.90;;
6751;SDS011;3413;47.680;9.166;2023-09-19T10:49:10;1.60;;;0.80;;
6751;SDS011;3413;47.680;9.166;2023-09-19T10:54:13;1.43;;;0.80;;
6751;SDS011;3413;47.680;9.166;2023-09-19T10:59:19;1.93;;;1.03;;
6751;SDS011;3413;47.680;9.166;2023-09-19T11:04:26;1.90;;;0.90;;
6751;SDS011;3413;47.680;9.166;2023-09-19T11:09:46;4.47;;;0.97;;
6751;SDS011;3413;47.680;9.166;2023-09-19T11:14:56;2.60;;;1.00;;
6751;SDS011;3413;47.680;9.166;2023-09-19T11:30:40;1.87;;;0.80;;
6751;SDS011;3413;47.680;9.166;2023-09-19T11:35:59;2.20;;;1.00;;
6751;SDS011;3413;47.680;9.166;2023-09-19T11:46:31;2.63;;;1.00;;
6751;SDS011;3413;47.680;9.166;2023-09-19T11:51:42;2.53;;;1.33;;
6751;SDS011;3413;47.680;9.166;2023-09-19T11:56:50;3.20;;;1.00;;
6751;SDS011;3413;47.680;9.166;2023-09-19T12:01:56;2.10;;;1.00;;
6751;SDS011;3413;47.680;9.166;2023-09-19T12:06:59;1.60;;;0.80;;
6751;SDS011;3413;47.680;9.166;2023-09-19T12:12:01;2.33;;;0.90;;
6751;SDS011;3413;47.680;9.166;2023-09-19T12:17:04;1.93;;;0.90;;
6751;SDS011;3413;47.680;9.166;2023-09-19T12:22:06;4.70;;;1.00;;
6751;SDS011;3413;47.680;9.166;2023-09-19T12:27:10;8.53;;;1.30;;
6751;SDS011;3413;47.680;9.166;2023-09-19T12:32:13;1.90;;;1.00;;
6751;SDS011;3413;47.680;9.166;2023-09-19T12:37:18;2.07;;;0.80;;
6751;SDS011;3413;47.680;9.166;2023-09-19T12:42:24;4.30;;;1.20;;
6751;SDS011;3413;47.680;9.166;2023-09-19T12:47:33;1.63;;;0.90;;
6751;SDS011;3413;47.680;9.166;2023-09-19T12:52:36;1.57;;;0.80;;
6751;SDS011;3413;47.680;9.166;2023-09-19T12:57:39;1.60;;;0.80;;
6751;SDS011;3413;47.680;9.166;2023-09-19T13:03:09;2.70;;;1.07;;
6751;SDS011;3413;47.680;9.166;2023-09-19T13:08:18;3.80;;;1.20;;
6751;SDS011;3413;47.680;9.166;2023-09-19T13:13:31;2.03;;;1.00;;
6751;SDS011;3413;47.680;9.166;2023-09-19T13:18:40;2.23;;;0.87;;
6751;SDS011;3413;47.680;9.166;2023-09-19T13:23:47;1.80;;;1.00;;
6751;SDS011;3413;47.680;9.166;2023-09-19T13:28:50;2.00;;;0.93;;
6751;SDS011;3413;47.680;9.166;2023-09-19T13:33:52;2.07;;;1.00;;
6751;SDS011;3413;47.680;9.166;2023-09-19T13:38:54;1.83;;;0.80;;
6751;SDS011;3413;47.680;9.166;2023-09-19T13:43:57;1.80;;;0.90;;
6751;SDS011;3413;47.680;9.166;2023-09-19T13:48:59;1.87;;;0.87;;
6751;SDS011;3413;47.680;9.166;2023-09-19T13:54:01;2.97;;;0.80;;
6751;SDS011;3413;47.680;9.166;2023-09-19T13:59:02;1.53;;;0.70;;
6751;SDS011;3413;47.680;9.166;2023-09-19T14:04:05;3.23;;;0.90;;
6751;SDS011;3413;47.680;9.166;2023-09-19T14:09:07;1.20;;;0.60;;
6751;SDS011;3413;47.680;9.166;2023-09-19T14:14:09;1.60;;;0.80;;
6751;SDS011;3413;47.680;9.166;2023-09-19T14:19:12;13.93;;;1.00;;
6751;SDS011;3413;47.680;9.166;2023-09-19T14:24:18;4.73;;;0.80;;
6751;SDS011;3413;47.680;9.166;2023-09-19T14:29:20;2.50;;;0.90;;
6751;SDS011;3413;47.680;9.166;2023-09-19T14:34:22;1.30;;;0.67;;
6751;SDS011;3413;47.680;9.166;2023-09-19T14:39:24;2.50;;;0.83;;
6751;SDS011;3413;47.680;9.166;2023-09-19T14:44:26;1.20;;;0.70;;
6751;SDS011;3413;47.680;9.166;2023-09-19T14:49:29;2.43;;;0.80;;
6751;SDS011;3413;47.680;9.166;2023-09-19T14:54:31;1.47;;;0.70;;
6751;SDS011;3413;47.680;9.166;2023-09-19T14:59:33;1.40;;;0.83;;
6751;SDS011;3413;47.680;9.166;2023-09-19T15:04:39;2.23;;;1.10;;
6751;SDS011;3413;47.680;9.166;2023-09-19T15:09:43;1.60;;;0.90;;
6751;SDS011;3413;47.680;9.166;2023-09-19T15:14:45;2.37;;;0.87;;
6751;SDS011;3413;47.680;9.166;2023-09-19T15:19:49;1.80;;;0.80;;
6751;SDS011;3413;47.680;9.166;2023-09-19T15:24:51;3.60;;;0.80;;
6751;SDS011;3413;47.680;9.166;2023-09-19T15:29:53;1.30;;;0.60;;
6751;SDS011;3413;47.680;9.166;2023-09-19T15:34:55;3.20;;;0.90;;
6751;SDS011;3413;47.680;9.166;2023-09-19T15:39:57;2.37;;;0.90;;
6751;SDS011;3413;47.680;9.166;2023-09-19T15:44:59;2.90;;;0.83;;
6751;SDS011;3413;47.680;9.166;2023-09-19T15:50:01;5.00;;;0.73;;
6751;SDS011;3413;47.680;9.166;2023-09-19T15:55:04;2.10;;;1.03;;
6751;SDS011;3413;47.680;9.166;2023-09-19T16:00:07;1.63;;;0.90;;
6751;SDS011;3413;47.680;9.166;2023-09-19T16:05:11;3.30;;;1.33;;
6751;SDS011;3413;47.680;9.166;2023-09-19T16:10:14;1.60;;;0.80;;
6751;SDS011;3413;47.680;9.166;2023-09-19T16:15:16;1.73;;;1.00;;
6751;SDS011;3413;47.680;9.166;2023-09-19T16:20:19;1.80;;;1.00;;
6751;SDS011;3413;47.680;9.166;2023-09-19T16:25:24;1.40;;;0.90;;
6751;SDS011;3413;47.680;9.166;2023-09-19T16:30:27;5.57;;;0.90;;
6751;SDS011;3413;47.680;9.166;2023-09-19T16:35:30;1.40;;;0.80;;
6751;SDS011;3413;47.680;9.166;2023-09-19T16:40:31;1.60;;;1.10;;
6751;SDS011;3413;47.680;9.166;2023-09-19T16:45:34;5.40;;;1.00;;
6751;SDS011;3413;47.680;9.166;2023-09-19T16:50:36;1.50;;;0.80;;
6751;SDS011;3413;47.680;9.166;2023-09-19T16:55:39;2.50;;;0.87;;
6751;SDS011;3413;47.680;9.166;2023-09-19T17:00:42;1.50;;;0.80;;
6751;SDS011;3413;47.680;9.166;2023-09-19T17:05:47;2.07;;;1.10;;
6751;SDS011;3413;47.680;9.166;2023-09-19T17:10:50;2.50;;;1.00;;
6751;SDS011;3413;47.680;9.166;2023-09-19T17:21:24;1.37;;;0.77;;
6751;SDS011;3413;47.680;9.166;2023-09-19T17:26:28;2.10;;;1.10;;
6751;SDS011;3413;47.680;9.166;2023-09-19T17:31:30;2.00;;;1.20;;
6751;SDS011;3413;47.680;9.166;2023-09-19T17:36:32;2.33;;;1.17;;
6751;SDS011;3413;47.680;9.166;2023-09-19T17:41:36;4.53;;;1.10;;
6751;SDS011;3413;47.680;9.166;2023-09-19T17:46:38;2.73;;;0.90;;
6751;SDS011;3413;47.680;9.166;2023-09-19T17:51:40;1.87;;;1.03;;
6751;SDS011;3413;47.680;9.166;2023-09-19T17:56:42;2.17;;;1.20;;
6751;SDS011;3413;47.680;9.166;2023-09-19T18:01:44;2.50;;;1.20;;
6751;SDS011;3413;47.680;9.166;2023-09-19T18:06:46;2.50;;;1.20;;
6751;SDS011;3413;47.680;9.166;2023-09-19T18:11:50;5.70;;;1.70;;
6751;SDS011;3413;47.680;9.166;2023-09-19T18:16:52;2.60;;;1.50;;
6751;SDS011;3413;47.680;9.166;2023-09-19T18:21:57;2.47;;;1.20;;
6751;SDS011;3413;47.680;9.166;2023-09-19T18:27:02;3.37;;;1.40;;
6751;SDS011;3413;47.680;9.166;2023-09-19T18:32:05;2.50;;;1.40;;
6751;SDS011;3413;47.680;9.166;2023-09-19T18:37:08;2.40;;;1.03;;
6751;SDS011;3413;47.680;9.166;2023-09-19T18:42:12;13.33;;;1.70;;
6751;SDS011;3413;47.680;9.166;2023-09-19T18:47:14;13.60;;;1.20;;
6751;SDS011;3413;47.680;9.166;2023-09-19T18:52:16;2.43;;;1.23;;
6751;SDS011;3413;47.680;9.166;2023-09-19T18:57:17;6.10;;;1.20;;
6751;SDS011;3413;47.680;9.166;2023-09-19T19:02:20;5.40;;;1.33;;
6751;SDS011;3413;47.680;9.166;2023-09-19T19:07:24;2.90;;;1.37;;
6751;SDS011;3413;47.680;9.166;2023-09-19T19:12:27;2.60;;;1.23;;
6751;SDS011;3413;47.680;9.166;2023-09-19T19:17:29;2.10;;;1.20;;
6751;SDS011;3413;47.680;9.166;2023-09-19T19:22:34;2.67;;;1.20;;
6751;SDS011;3413;47.680;9.166;2023-09-19T19:27:37;6.90;;;1.87;;
6751;SDS011;3413;47.680;9.166;2023-09-19T19:32:39;4.93;;;2.03;;
6751;SDS011;3413;47.680;9.166;2023-09-19T19:37:42;4.33;;;1.97;;
6751;SDS011;3413;47.680;9.166;2023-09-19T19:42:45;4.90;;;1.83;;
6751;SDS011;3413;47.680;9.166;2023-09-19T19:47:47;5.60;;;2.43;;
6751;SDS011;3413;47.680;9.166;2023-09-19T19:52:52;3.53;;;1.67;;
6751;SDS011;3413;47.680;9.166;2023-09-19T19:58:00;6.00;;;2.00;;
6751;SDS011;3413;47.680;9.166;2023-09-19T20:03:02;3.90;;;1.60;;
6751;SDS011;3413;47.680;9.166;2023-09-19T20:08:05;5.43;;;2.00;;
6751;SDS011;3413;47.680;9.166;2023-09-19T20:13:08;3.20;;;1.67;;
6751;SDS011;3413;47.680;9.166;2023-09-19T20:18:12;4.40;;;1.57;;
6751;SDS011;3413;47.680;9.166;2023-09-19T20:23:14;2.80;;;1.20;;
6751;SDS011;3413;47.680;9.166;2023-09-19T20:28:18;3.30;;;1.83;;
6751;SDS011;3413;47.680;9.166;2023-09-19T20:33:23;2.80;;;1.17;;
6751;SDS011;3413;47.680;9.166;2023-09-19T20:38:25;2.13;;;1.27;;
6751;SDS011;3413;47.680;9.166;2023-09-19T20:43:31;5.40;;;1.90;;
6751;SDS011;3413;47.680;9.166;2023-09-19T20:48:38;2.77;;;1.50;;
6751;SDS011;3413;47.680;9.166;2023-09-19T20:53:44;6.17;;;1.53;;
6751;SDS011;3413;47.680;9.166;2023-09-19T20:58:47;4.90;;;1.50;;
6751;SDS011;3413;47.680;9.166;2023-09-19T21:03:50;2.93;;;1.40;;
6751;SDS011;3413;47.680;9.166;2023-09-19T21:08:52;3.10;;;1.30;;
6751;SDS011;3413;47.680;9.166;2023-09-19T21:13:54;7.03;;;1.27;;
6751;SDS011;3413;47.680;9.166;2023-09-19T21:18:56;1.90;;;1.30;;
6751;SDS011;3413;47.680;9.166;2023-09-19T21:24:01;2.83;;;1.63;;
6751;SDS011;3413;47.680;9.166;2023-09-19T21:29:05;2.53;;;1.40;;
6751;SDS011;3413;47.680;9.166;2023-09-19T21:34:07;4.73;;;1.17;;
6751;SDS011;3413;47.680;9.166;2023-09-19T21:39:10;2.13;;;1.23;;
6751;SDS011;3413;47.680;9.166;2023-09-19T21:44:13;7.33;;;1.30;;
6751;SDS011;3413;47.680;9.166;2023-09-19T21:49:15;2.10;;;1.20;;
6751;SDS011;3413;47.680;9.166;2023-09-19T21:54:17;4.73;;;1.20;;
6751;SDS011;3413;47.680;9.166;2023-09-19T21:59:20;2.30;;;1.30;;
6751;SDS011;3413;47.680;9.166;2023-09-19T22:04:23;2.17;;;1.20;;
6751;SDS011;3413;47.680;9.166;2023-09-19T22:09:26;3.23;;;1.23;;
6751;SDS011;3413;47.680;9.166;2023-09-19T22:14:28;2.07;;;1.00;;
6751;SDS011;3413;47.680;9.166;2023-09-19T22:19:30;3.30;;;1.67;;
6751;SDS011;3413;47.680;9.166;2023-09-19T22:24:32;4.60;;;1.63;;
6751;SDS011;3413;47.680;9.166;2023-09-19T22:29:34;2.07;;;1.00;;
6751;SDS011;3413;47.680;9.166;2023-09-19T22:34:36;1.80;;;1.20;;
6751;SDS011;3413;47.680;9.166;2023-09-19T22:39:38;3.00;;;1.40;;
6751;SDS011;3413;47.680;9.166;2023-09-19T22:44:40;3.20;;;1.47;;
6751;SDS011;3413;47.680;9.166;2023-09-19T22:49:42;2.13;;;1.20;;
6751;SDS011;3413;47.680;9.166;2023-09-19T22:54:44;1.83;;;1.03;;
6751;SDS011;3413;47.680;9.166;2023-09-19T22:59:48;2.00;;;1.10;;
6751;SDS011;3413;47.680;9.166;2023-09-19T23:04:53;1.37;;;0.90;;
6751;SDS011;3413;47.680;9.166;2023-09-19T23:10:02;2.37;;;1.10;;
6751;SDS011;3413;47.680;9.166;2023-09-19T23:15:07;1.63;;;0.97;;
6751;SDS011;3413;47.680;9.166;2023-09-19T23:20:12;4.20;;;1.30;;
6751;SDS011;3413;47.680;9.166;2023-09-19T23:25:26;1.83;;;1.03;;
6751;SDS011;3413;47.680;9.166;2023-09-19T23:30:29;2.07;;;1.10;;
6751;SDS011;3413;47.680;9.166;2023-09-19T23:35:33;2.30;;;1.50;;
6751;SDS011;3413;47.680;9.166;2023-09-19T23:40:36;5.80;;;1.40;;
6751;SDS011;3413;47.680;9.166;2023-09-19T23:45:40;2.00;;;1.20;;
6751;SDS011;3413;47.680;9.166;2023-09-19T23:50:43;1.80;;;1.20;;
6751;SDS011;3413;47.680;9.166;2023-09-19T23:55:46;1.40;;;1.00;;
